sensor_id;sensor_type;location;lat;lon;timestamp;P1;durP1;ratioP1;P2;durP2;ratioP2
42414;SDS011;28058;46.344;17.786;2023-05-10T00:01:39;8.73;;;4.80;;
42414;SDS011;28058;46.344;17.786;2023-05-10T00:04:06;8.00;;;5.38;;
42414;SDS011;28058;46.344;17.786;2023-05-10T00:06:34;10.43;;;5.47;;
42414;SDS011;28058;46.344;17.786;2023-05-10T00:09:01;7.63;;;5.53;;
42414;SDS011;28058;46.344;17.786;2023-05-10T00:11:27;7.88;;;5.60;;
42414;SDS011;28058;46.344;17.786;2023-05-10T00:13:54;6.35;;;4.65;;
42414;SDS011;28058;46.344;17.786;2023-05-10T00:16:21;8.20;;;5.90;;
42414;SDS011;28058;46.344;17.786;2023-05-10T00:18:48;11.57;;;5.60;;
42414;SDS011;28058;46.344;17.786;2023-05-10T00:21:15;9.90;;;5.70;;
42414;SDS011;28058;46.344;17.786;2023-05-10T00:23:41;10.43;;;5.97;;
42414;SDS011;28058;46.344;17.786;2023-05-10T00:26:08;9.95;;;6.30;;
42414;SDS011;28058;46.344;17.786;2023-05-10T00:28:35;10.13;;;5.88;;
42414;SDS011;28058;46.344;17.786;2023-05-10T00:31:01;8.10;;;5.75;;
42414;SDS011;28058;46.344;17.786;2023-05-10T00:33:28;11.80;;;6.43;;
42414;SDS011;28058;46.344;17.786;2023-05-10T00:35:55;7.93;;;5.50;;
42414;SDS011;28058;46.344;17.786;2023-05-10T00:38:22;10.20;;;6.18;;
42414;SDS011;28058;46.344;17.786;2023-05-10T00:40:49;9.10;;;6.03;;
42414;SDS011;28058;46.344;17.786;2023-05-10T00:43:16;9.38;;;6.10;;
42414;SDS011;28058;46.344;17.786;2023-05-10T00:45:43;10.35;;;6.47;;
42414;SDS011;28058;46.344;17.786;2023-05-10T00:48:09;9.15;;;6.00;;
42414;SDS011;28058;46.344;17.786;2023-05-10T00:50:36;10.70;;;6.20;;
42414;SDS011;28058;46.344;17.786;2023-05-10T00:53:03;15.75;;;8.93;;
42414;SDS011;28058;46.344;17.786;2023-05-10T00:55:30;14.00;;;8.45;;
42414;SDS011;28058;46.344;17.786;2023-05-10T00:57:57;11.98;;;7.63;;
42414;SDS011;28058;46.344;17.786;2023-05-10T01:00:24;18.35;;;8.63;;
42414;SDS011;28058;46.344;17.786;2023-05-10T01:02:53;16.10;;;8.43;;
42414;SDS011;28058;46.344;17.786;2023-05-10T01:05:20;12.88;;;8.15;;
42414;SDS011;28058;46.344;17.786;2023-05-10T01:07:47;14.15;;;8.45;;
42414;SDS011;28058;46.344;17.786;2023-05-10T01:10:14;13.48;;;7.78;;
42414;SDS011;28058;46.344;17.786;2023-05-10T01:12:42;15.55;;;7.72;;
42414;SDS011;28058;46.344;17.786;2023-05-10T01:15:10;12.35;;;7.47;;
42414;SDS011;28058;46.344;17.786;2023-05-10T01:17:38;8.27;;;6.65;;
42414;SDS011;28058;46.344;17.786;2023-05-10T01:20:06;12.60;;;7.10;;
42414;SDS011;28058;46.344;17.786;2023-05-10T01:30:35;13.25;;;8.50;;
42414;SDS011;28058;46.344;17.786;2023-05-10T01:43:26;14.32;;;8.65;;
42414;SDS011;28058;46.344;17.786;2023-05-10T01:45:59;12.52;;;8.40;;
42414;SDS011;28058;46.344;17.786;2023-05-10T01:48:27;12.38;;;7.47;;
42414;SDS011;28058;46.344;17.786;2023-05-10T01:50:54;11.88;;;7.60;;
42414;SDS011;28058;46.344;17.786;2023-05-10T01:53:22;12.23;;;7.10;;
42414;SDS011;28058;46.344;17.786;2023-05-10T01:55:51;9.25;;;6.20;;
42414;SDS011;28058;46.344;17.786;2023-05-10T01:58:27;10.98;;;7.68;;
42414;SDS011;28058;46.344;17.786;2023-05-10T02:00:54;13.70;;;7.55;;
42414;SDS011;28058;46.344;17.786;2023-05-10T02:03:23;9.98;;;7.20;;
42414;SDS011;28058;46.344;17.786;2023-05-10T02:05:50;12.38;;;7.55;;
42414;SDS011;28058;46.344;17.786;2023-05-10T02:08:18;14.70;;;8.00;;
42414;SDS011;28058;46.344;17.786;2023-05-10T02:10:45;9.40;;;7.45;;
42414;SDS011;28058;46.344;17.786;2023-05-10T02:13:13;15.00;;;8.38;;
42414;SDS011;28058;46.344;17.786;2023-05-10T02:15:40;10.02;;;6.95;;
42414;SDS011;28058;46.344;17.786;2023-05-10T02:18:08;12.40;;;7.50;;
42414;SDS011;28058;46.344;17.786;2023-05-10T02:20:35;16.15;;;9.32;;
42414;SDS011;28058;46.344;17.786;2023-05-10T02:23:03;18.17;;;8.40;;
42414;SDS011;28058;46.344;17.786;2023-05-10T02:25:31;12.80;;;7.88;;
42414;SDS011;28058;46.344;17.786;2023-05-10T02:27:59;14.98;;;9.27;;
42414;SDS011;28058;46.344;17.786;2023-05-10T02:30:26;13.23;;;8.63;;
42414;SDS011;28058;46.344;17.786;2023-05-10T02:32:54;14.00;;;8.52;;
42414;SDS011;28058;46.344;17.786;2023-05-10T02:35:21;12.45;;;7.75;;
42414;SDS011;28058;46.344;17.786;2023-05-10T02:37:49;12.63;;;8.25;;
42414;SDS011;28058;46.344;17.786;2023-05-10T02:40:17;11.25;;;7.65;;
42414;SDS011;28058;46.344;17.786;2023-05-10T02:42:44;11.25;;;7.60;;
42414;SDS011;28058;46.344;17.786;2023-05-10T02:45:12;11.25;;;8.30;;
42414;SDS011;28058;46.344;17.786;2023-05-10T02:47:39;15.85;;;10.20;;
42414;SDS011;28058;46.344;17.786;2023-05-10T02:50:06;13.50;;;9.35;;
42414;SDS011;28058;46.344;17.786;2023-05-10T02:52:36;16.35;;;9.68;;
42414;SDS011;28058;46.344;17.786;2023-05-10T02:55:05;13.88;;;9.43;;
42414;SDS011;28058;46.344;17.786;2023-05-10T02:57:32;15.15;;;9.73;;
42414;SDS011;28058;46.344;17.786;2023-05-10T03:00:00;13.88;;;9.48;;
42414;SDS011;28058;46.344;17.786;2023-05-10T03:02:27;12.52;;;8.82;;
42414;SDS011;28058;46.344;17.786;2023-05-10T03:04:57;17.23;;;10.35;;
42414;SDS011;28058;46.344;17.786;2023-05-10T03:07:24;12.80;;;9.05;;
42414;SDS011;28058;46.344;17.786;2023-05-10T03:09:51;13.38;;;9.30;;
42414;SDS011;28058;46.344;17.786;2023-05-10T03:12:25;16.55;;;9.18;;
42414;SDS011;28058;46.344;17.786;2023-05-10T03:17:46;13.73;;;9.10;;
42414;SDS011;28058;46.344;17.786;2023-05-10T03:20:48;15.63;;;9.30;;
42414;SDS011;28058;46.344;17.786;2023-05-10T03:23:11;15.23;;;9.15;;
42414;SDS011;28058;46.344;17.786;2023-05-10T03:25:38;12.05;;;8.90;;
42414;SDS011;28058;46.344;17.786;2023-05-10T03:28:06;14.77;;;10.23;;
42414;SDS011;28058;46.344;17.786;2023-05-10T03:30:33;14.57;;;9.70;;
42414;SDS011;28058;46.344;17.786;2023-05-10T03:33:07;16.23;;;9.35;;
42414;SDS011;28058;46.344;17.786;2023-05-10T03:35:34;12.43;;;9.13;;
42414;SDS011;28058;46.344;17.786;2023-05-10T03:38:01;16.25;;;9.60;;
42414;SDS011;28058;46.344;17.786;2023-05-10T03:40:28;15.80;;;9.45;;
42414;SDS011;28058;46.344;17.786;2023-05-10T03:42:58;14.23;;;10.15;;
42414;SDS011;28058;46.344;17.786;2023-05-10T03:45:25;16.52;;;10.00;;
42414;SDS011;28058;46.344;17.786;2023-05-10T03:47:53;14.20;;;9.18;;
42414;SDS011;28058;46.344;17.786;2023-05-10T03:50:20;16.23;;;9.93;;
42414;SDS011;28058;46.344;17.786;2023-05-10T03:52:47;13.07;;;8.93;;
42414;SDS011;28058;46.344;17.786;2023-05-10T03:55:14;13.98;;;9.75;;
42414;SDS011;28058;46.344;17.786;2023-05-10T03:57:41;21.88;;;13.80;;
42414;SDS011;28058;46.344;17.786;2023-05-10T04:00:08;24.92;;;15.98;;
42414;SDS011;28058;46.344;17.786;2023-05-10T04:02:35;20.40;;;13.80;;
42414;SDS011;28058;46.344;17.786;2023-05-10T04:05:01;18.95;;;13.18;;
42414;SDS011;28058;46.344;17.786;2023-05-10T04:07:28;16.17;;;11.35;;
42414;SDS011;28058;46.344;17.786;2023-05-10T04:09:57;20.17;;;9.80;;
42414;SDS011;28058;46.344;17.786;2023-05-10T04:12:24;15.15;;;10.13;;
42414;SDS011;28058;46.344;17.786;2023-05-10T04:14:51;12.73;;;9.55;;
42414;SDS011;28058;46.344;17.786;2023-05-10T04:17:18;14.98;;;10.07;;
42414;SDS011;28058;46.344;17.786;2023-05-10T04:19:45;14.48;;;9.82;;
42414;SDS011;28058;46.344;17.786;2023-05-10T04:22:12;13.18;;;8.57;;
42414;SDS011;28058;46.344;17.786;2023-05-10T04:24:38;14.35;;;7.55;;
42414;SDS011;28058;46.344;17.786;2023-05-10T04:27:05;9.20;;;6.45;;
42414;SDS011;28058;46.344;17.786;2023-05-10T04:29:32;13.00;;;7.10;;
42414;SDS011;28058;46.344;17.786;2023-05-10T04:31:58;15.00;;;6.75;;
42414;SDS011;28058;46.344;17.786;2023-05-10T04:34:25;9.85;;;6.18;;
42414;SDS011;28058;46.344;17.786;2023-05-10T04:36:52;7.90;;;5.32;;
42414;SDS011;28058;46.344;17.786;2023-05-10T04:39:19;7.70;;;5.93;;
42414;SDS011;28058;46.344;17.786;2023-05-10T04:41:45;10.18;;;5.65;;
42414;SDS011;28058;46.344;17.786;2023-05-10T04:44:12;12.55;;;6.07;;
42414;SDS011;28058;46.344;17.786;2023-05-10T04:46:39;11.35;;;5.93;;
42414;SDS011;28058;46.344;17.786;2023-05-10T04:49:06;9.10;;;6.38;;
42414;SDS011;28058;46.344;17.786;2023-05-10T04:51:32;9.57;;;5.80;;
42414;SDS011;28058;46.344;17.786;2023-05-10T04:53:59;9.00;;;5.85;;
42414;SDS011;28058;46.344;17.786;2023-05-10T04:56:32;10.40;;;5.78;;
42414;SDS011;28058;46.344;17.786;2023-05-10T04:58:58;11.23;;;5.05;;
42414;SDS011;28058;46.344;17.786;2023-05-10T05:01:25;8.05;;;5.40;;
42414;SDS011;28058;46.344;17.786;2023-05-10T05:03:52;6.57;;;4.63;;
42414;SDS011;28058;46.344;17.786;2023-05-10T05:06:19;7.45;;;5.18;;
42414;SDS011;28058;46.344;17.786;2023-05-10T05:08:47;10.05;;;5.10;;
42414;SDS011;28058;46.344;17.786;2023-05-10T05:11:16;7.20;;;5.97;;
42414;SDS011;28058;46.344;17.786;2023-05-10T05:13:43;8.93;;;6.03;;
42414;SDS011;28058;46.344;17.786;2023-05-10T05:16:10;7.38;;;5.75;;
42414;SDS011;28058;46.344;17.786;2023-05-10T05:18:38;8.15;;;5.65;;
42414;SDS011;28058;46.344;17.786;2023-05-10T05:21:17;6.72;;;5.38;;
42414;SDS011;28058;46.344;17.786;2023-05-10T05:23:47;10.13;;;5.82;;
42414;SDS011;28058;46.344;17.786;2023-05-10T05:26:14;11.38;;;6.30;;
42414;SDS011;28058;46.344;17.786;2023-05-10T05:28:41;8.70;;;6.40;;
42414;SDS011;28058;46.344;17.786;2023-05-10T05:31:08;8.18;;;6.32;;
42414;SDS011;28058;46.344;17.786;2023-05-10T05:33:35;9.23;;;7.10;;
42414;SDS011;28058;46.344;17.786;2023-05-10T05:36:03;10.32;;;7.70;;
42414;SDS011;28058;46.344;17.786;2023-05-10T05:38:30;10.65;;;6.90;;
42414;SDS011;28058;46.344;17.786;2023-05-10T05:40:57;10.77;;;7.68;;
42414;SDS011;28058;46.344;17.786;2023-05-10T05:43:24;11.38;;;8.02;;
42414;SDS011;28058;46.344;17.786;2023-05-10T05:45:54;13.88;;;8.75;;
42414;SDS011;28058;46.344;17.786;2023-05-10T05:48:21;13.77;;;8.48;;
42414;SDS011;28058;46.344;17.786;2023-05-10T05:50:48;12.23;;;8.50;;
42414;SDS011;28058;46.344;17.786;2023-05-10T05:53:15;12.95;;;8.13;;
42414;SDS011;28058;46.344;17.786;2023-05-10T05:55:55;9.23;;;7.40;;
42414;SDS011;28058;46.344;17.786;2023-05-10T05:58:22;10.60;;;7.05;;
42414;SDS011;28058;46.344;17.786;2023-05-10T06:00:49;9.50;;;6.88;;
42414;SDS011;28058;46.344;17.786;2023-05-10T06:03:16;9.23;;;6.38;;
42414;SDS011;28058;46.344;17.786;2023-05-10T06:05:43;9.30;;;6.70;;
42414;SDS011;28058;46.344;17.786;2023-05-10T06:08:10;9.65;;;6.35;;
42414;SDS011;28058;46.344;17.786;2023-05-10T06:10:37;8.13;;;5.85;;
42414;SDS011;28058;46.344;17.786;2023-05-10T06:13:04;9.32;;;5.55;;
42414;SDS011;28058;46.344;17.786;2023-05-10T06:15:30;9.05;;;6.47;;
42414;SDS011;28058;46.344;17.786;2023-05-10T06:17:59;6.80;;;5.43;;
42414;SDS011;28058;46.344;17.786;2023-05-10T06:20:25;8.43;;;5.80;;
42414;SDS011;28058;46.344;17.786;2023-05-10T06:22:52;8.15;;;5.95;;
42414;SDS011;28058;46.344;17.786;2023-05-10T06:25:19;7.78;;;5.75;;
42414;SDS011;28058;46.344;17.786;2023-05-10T06:27:46;8.50;;;5.32;;
42414;SDS011;28058;46.344;17.786;2023-05-10T06:30:18;4.10;;;3.45;;
42414;SDS011;28058;46.344;17.786;2023-05-10T06:32:44;10.07;;;3.88;;
42414;SDS011;28058;46.344;17.786;2023-05-10T06:35:11;7.40;;;3.92;;
42414;SDS011;28058;46.344;17.786;2023-05-10T06:37:38;4.88;;;3.30;;
42414;SDS011;28058;46.344;17.786;2023-05-10T06:40:05;5.07;;;3.70;;
42414;SDS011;28058;46.344;17.786;2023-05-10T06:42:33;5.82;;;3.38;;
42414;SDS011;28058;46.344;17.786;2023-05-10T06:44:59;4.38;;;3.58;;
42414;SDS011;28058;46.344;17.786;2023-05-10T06:47:26;6.50;;;3.22;;
42414;SDS011;28058;46.344;17.786;2023-05-10T06:49:53;4.47;;;3.65;;
42414;SDS011;28058;46.344;17.786;2023-05-10T06:52:20;6.45;;;4.00;;
42414;SDS011;28058;46.344;17.786;2023-05-10T06:54:47;4.57;;;3.30;;
42414;SDS011;28058;46.344;17.786;2023-05-10T06:57:14;6.88;;;3.28;;
42414;SDS011;28058;46.344;17.786;2023-05-10T06:59:56;4.43;;;3.15;;
42414;SDS011;28058;46.344;17.786;2023-05-10T07:02:23;4.22;;;3.45;;
42414;SDS011;28058;46.344;17.786;2023-05-10T09:07:09;3.60;;;2.92;;
42414;SDS011;28058;46.344;17.786;2023-05-10T09:09:37;4.90;;;2.75;;
42414;SDS011;28058;46.344;17.786;2023-05-10T09:12:03;5.28;;;2.75;;
42414;SDS011;28058;46.344;17.786;2023-05-10T09:14:30;4.10;;;3.30;;
